• Join FlightAware (Why Join?)
  • Login
  • US Flag 
Rudolph Flight #1: Arrived! 
12:39AM EST


 

Airport Tracker/Info


-or-


 

Live Flight TrackerFlight Track Log ✈ SAS2691 ✈ 30-Sep-2013 ✈ EKCH / CPH - LIPZ / VCE

Flight Track Log - Related Links

Times and Time Zones

All times are in EDT time to prevent confusion due to time zone crossing. See the SAS2691 flight status page for this flight to view local times or setup timezone preferences in your user account.

Time Position Orientation Groundspeed Altitude Reporting Facility
EDT Latitude Longitude Course Direction KTS MPH feet Rate Location/Type
03:39AM 55.6110 12.6460 132° Southeast 98 113  Level FlightAware
03:39AM 55.6200 12.6600 41° Northeast 151 174 1,020 Level FlightAware
03:40AM 55.6291 12.6736 40° Northeast 153 176 600 2,400 Climbing FlightAware ADS-B (ESMS / MMX)
03:40AM 55.6328 12.6838 57° Northeast 153 176 1,000 1,680 Climbing FlightAware ADS-B (ESMS / MMX)
03:40AM 55.6339 12.7148 86° East 168 193 1,600 1,320 Climbing FlightAware ADS-B (ESMS / MMX)
03:41AM 55.6306 12.7430 102° East 186 214 2,000 1,380 Climbing FlightAware ADS-B (ESMS / MMX)
03:41AM 55.6239 12.7546 136° Southeast 196 226 2,300 1,140 Climbing FlightAware ADS-B (ESMS / MMX)
03:41AM 55.5970 12.7813 151° Southeast 243 280 2,800 1,680 Climbing FlightAware ADS-B (ESMS / MMX)
03:42AM 55.5786 12.7983 152° Southeast 254 292 3,700 2,760 Climbing FlightAware ADS-B (ESMS / MMX)
03:42AM 55.5657 12.8074 158° South 256 295 4,200 3,000 Climbing FlightAware ADS-B (ESMS / MMX)
03:42AM 55.5540 12.8086 177° South 259 298 4,700 3,060 Climbing FlightAware ADS-B (ESMS / MMX)
03:42AM 55.5275 12.8052 184° South 265 305 5,800 2,760 Climbing FlightAware ADS-B (ESMS / MMX)
03:43AM 55.5044 12.8016 185° South 270 311 6,600 2,220 Climbing FlightAware ADS-B (ESMS / MMX)
03:43AM 55.4827 12.8016 180° South 283 326 7,300 1,560 Climbing FlightAware ADS-B (ESMS / MMX)
03:43AM 55.4541 12.8249 155° Southeast 305 351 7,700 1,440 Climbing FlightAware ADS-B (ESMS / MMX)
03:44AM 55.4323 12.8479 149° Southeast 323 372 8,300 2,100 Climbing FlightAware ADS-B (ESMS / MMX)
03:44AM 55.4021 12.8799 149° Southeast 331 381 9,100 2,580 Climbing FlightAware ADS-B (ESMS / MMX)
03:45AM 55.3620 12.9219 149° Southeast 336 387 10,500 2,400 Climbing FlightAware ADS-B (ESMS / MMX)
03:45AM 55.2921 12.9948 149° Southeast 353 406 12,400 2,040 Climbing FlightAware ADS-B (ESMS / MMX)
03:46AM 55.2544 13.0342 149° Southeast 371 427 13,300 2,040 Climbing FlightAware ADS-B (ESMS / MMX)
03:46AM 55.1919 13.0796 157° South 375 432 14,700 2,160 Climbing FlightAware ADS-B (ESMS / MMX)
03:47AM 55.1452 13.1077 161° South 382 440 15,700 1,980 Climbing FlightAware ADS-B (ESMS / MMX)
03:48AM 55.0850 13.1459 160° South 391 450 16,900 1,980 Climbing FlightAware ADS-B (ESMS / MMX)
03:48AM 55.0374 13.1840 155° Southeast 398 458 17,900 1,860 Climbing FlightAware ADS-B (ESMS / MMX)
03:49AM 54.9833 13.2288 155° Southeast 403 464 18,800 1,980 Climbing FlightAware ADS-B (ESMS / MMX)
03:49AM 54.9383 13.2663 154° Southeast 404 465 19,900 1,920 Climbing FlightAware ADS-B (ESMS / MMX)
03:50AM 54.8824 13.3137 154° Southeast 409 471 20,800 1,620 Climbing FlightAware ADS-B (ESMS / MMX)
03:50AM 54.8288 13.3591 154° Southeast 415 478 21,600 1,440 Climbing FlightAware ADS-B (ESMS / MMX)
03:51AM 54.7803 13.3992 155° Southeast 422 486 22,300 1,440 Climbing FlightAware ADS-B (ESMS / MMX)
03:51AM 54.7084 13.4570 155° Southeast 429 494 23,300 1,380 Climbing FlightAware ADS-B (ESMS / MMX)
03:52AM 54.6489 13.5049 155° Southeast 433 498 24,000 1,380 Climbing FlightAware ADS-B (ESMS / MMX)
03:52AM 54.5890 13.5530 155° Southeast 435 501 24,800 1,380 Climbing FlightAware
03:53AM 54.5553 13.5793 156° South 438 504 25,200 1,080 Climbing FlightAware ADS-B (ESMS / MMX)
03:53AM 54.5031 13.6210 155° Southeast 444 511 25,700 1,020 Climbing FlightAware ADS-B (ESMS / MMX)
03:54AM 54.4368 13.6748 155° Southeast 450 518 26,300 1,020 Climbing FlightAware ADS-B (ESMS / MMX)
03:54AM 54.3807 13.7205 155° Southeast 455 524 26,800 960 Climbing FlightAware ADS-B (ESMS / MMX)
03:55AM 54.3116 13.7769 155° Southeast 459 528 27,400 1,140 Climbing FlightAware ADS-B (ESMS / MMX)
03:55AM 54.2639 13.8163 154° Southeast 460 529 28,100 1,080 Climbing FlightAware ADS-B (ESMS / MMX)
03:56AM 54.1944 13.8742 154° Southeast 465 535 28,500 720 Climbing FlightAware ADS-B (ESMS / MMX)
03:56AM 54.1335 13.9198 156° South 467 537 28,900 1,020 Climbing FlightAware ADS-B (ESMS / MMX)
03:57AM 54.0514 13.9321 175° South 455 524 29,700 1,380 Climbing FlightAware ADS-B (ESMS / MMX)
03:57AM 53.9919 13.9262 183° South 452 520 30,500 1,440 Climbing FlightAware ADS-B (ESMS / MMX)
03:58AM 53.9238 13.9204 183° South 448 516 31,200 1,140 Climbing FlightAware ADS-B (ESMS / MMX)
03:59AM 53.8630 13.9150 183° South 437 503 31,700 1,080 Climbing FlightAware
03:59AM 53.8030 13.9090 183° South 435 501 32,300 1,080 Climbing FlightAware
04:00AM 53.7404 13.9030 183° South 443 510 32,800 780 Climbing FlightAware ADS-B (ESMS / MMX)
04:00AM 53.6750 13.8967 183° South 447 514 33,100 540 Climbing FlightAware ADS-B (ESMS / MMX)
04:01AM 53.6089 13.8903 183° South 451 519 33,400 600 Climbing FlightAware ADS-B (ESMS / MMX)
04:01AM 53.5393 13.8836 183° South 453 521 33,800 540 Climbing FlightAware ADS-B (ESMS / MMX)
04:02AM 53.4784 13.8777 183° South 451 519 34,000 180 Climbing FlightAware ADS-B (ESMS / MMX)
04:02AM 53.4032 13.8704 183° South 451 519 34,000  Level FlightAware ADS-B (ESMS / MMX)
04:03AM 53.3412 13.8642 183° South 452 520 34,000  Level FlightAware ADS-B (ESMS / MMX)
04:03AM 53.2803 13.8585 183° South 454 522 34,000  Level FlightAware ADS-B (ESMS / MMX)
04:04AM 53.2174 13.8528 183° South 454 522 34,000  Level FlightAware ADS-B (ESMS / MMX)
04:04AM 53.1515 13.8465 183° South 455 524 34,000  Level FlightAware ADS-B (ESMS / MMX)
04:05AM 53.0660 13.8380 183° South 455 524 34,000  Level FlightAware
04:05AM 53.0439 13.8363 183° South 456 525 34,000  Level FlightAware ADS-B (ESMS / MMX)
04:06AM 52.9967 13.8319 183° South 457 526 34,000  Level FlightAware ADS-B (ESMS / MMX)
04:06AM 52.9013 13.8232 183° South 459 528 34,000  Level FlightAware ADS-B (ESMS / MMX)
04:07AM 52.7770 13.8120 183° South 459 528 34,000  Level FlightAware
04:08AM 52.6890 13.8030 184° South 460 529 34,000  Level FlightAware
04:08AM 52.6170 13.7960 183° South 458 527 34,000 60 Level FlightAware
04:09AM 52.5420 13.7890 183° South 456 525 34,100  Climbing FlightAware
04:10AM 52.4750 13.7830 183° South 453 521 34,000 -120 Descending FlightAware
04:10AM 52.4000 13.7760 183° South 450 518 34,000  Level FlightAware
04:11AM 52.3410 13.7710 183° South 447 514 34,000  Level FlightAware
04:11AM 52.2470 13.7620 183° South 437 503 34,000  Level FlightAware
04:12AM 52.1690 13.7550 183° South 435 501 34,000  Level FlightAware
04:13AM 52.1040 13.7490 183° South 435 501 34,000  Level FlightAware
04:13AM 52.0330 13.7430 183° South 436 502 34,000  Level FlightAware
04:14AM 51.9600 13.7370 183° South 437 503 34,000  Level FlightAware
04:14AM 51.8900 13.7300 184° South 448 516 34,000  Level FlightAware
04:15AM 51.8160 13.7230 183° South 450 518 34,000  Level FlightAware
04:16AM 51.7350 13.7160 183° South 452 520 34,000  Level FlightAware
04:16AM 51.6710 13.7110 183° South 454 522 34,000  Level FlightAware
04:17AM 51.5990 13.7050 183° South 447 514 34,000  Level FlightAware
04:17AM 51.5240 13.6980 183° South 448 516 34,000  Level FlightAware
04:18AM 51.4390 13.6910 183° South 448 516 34,000  Level FlightAware
04:19AM 51.3650 13.6840 183° South 449 517 34,000  Level FlightAware
04:19AM 51.3030 13.6780 183° South 450 518 34,000  Level FlightAware
04:20AM 51.2280 13.6720 183° South 450 518 34,000  Level FlightAware
04:20AM 51.1450 13.6650 183° South 450 518 34,000  Level FlightAware
04:21AM 51.0690 13.6580 183° South 451 519 34,000  Level FlightAware
04:21AM 51.0050 13.6530 183° South 451 519 34,000  Level FlightAware
04:22AM 50.9340 13.6470 183° South 451 519 34,000  Level FlightAware
04:23AM 50.8480 13.6390 183° South 452 520 34,000  Level FlightAware
04:23AM 50.7830 13.6340 183° South 451 519 34,000  Level FlightAware
04:24AM 50.7140 13.6270 184° South 451 519 34,000  Level FlightAware
04:24AM 50.6390 13.6080 189° South 457 526 34,000  Level FlightAware
04:25AM 50.5520 13.5860 189° South 455 524 34,000  Level FlightAware
04:25AM 50.4960 13.5720 189° South 454 522 34,000  Level FlightAware
04:26AM 50.4010 13.5486 189° South 454 522 34,000  Level FlightAware ADS-B (LKPR / PRG)
04:27AM 50.3388 13.5330 189° South 454 522 34,000  Level FlightAware ADS-B (LKPR / PRG)
04:27AM 50.2848 13.5195 189° South 454 522 34,000  Level FlightAware ADS-B (LKPR / PRG)
04:28AM 50.2135 13.5018 189° South 454 522 34,000  Level FlightAware ADS-B (LKPR / PRG)
04:28AM 50.1563 13.4876 189° South 455 524 34,000  Level FlightAware ADS-B (LKPR / PRG)
04:29AM 50.0935 13.4721 189° South 455 524 34,000  Level FlightAware ADS-B (LKPR / PRG)
04:29AM 50.0276 13.4558 189° South 455 524 34,000  Level FlightAware ADS-B (LKPR / PRG)
04:30AM 49.9674 13.4409 189° South 455 524 34,000  Level FlightAware ADS-B (LKPR / PRG)
04:30AM 49.9031 13.4250 189° South 455 524 34,000  Level FlightAware ADS-B (LKPR / PRG)
04:31AM 49.8203 13.4048 189° South 455 524 34,000  Level FlightAware ADS-B (LKPR / PRG)
04:31AM 49.7588 13.3818 194° South 451 519 34,000  Level FlightAware ADS-B (LKPR / PRG)
04:32AM 49.7027 13.3407 205° Southwest 450 518 34,000  Level FlightAware ADS-B (LKPR / PRG)
04:32AM 49.6484 13.3025 205° Southwest 449 517 34,000  Level FlightAware ADS-B (LKPR / PRG)
04:33AM 49.5714 13.2494 204° Southwest 449 517 34,000  Level FlightAware ADS-B (LKPR / PRG)
04:34AM 49.5004 13.2001 204° Southwest 449 517 34,000  Level FlightAware ADS-B (LKPR / PRG)
04:34AM 49.4240 13.1470 204° Southwest 448 516 34,000  Level FlightAware
04:34AM 49.4019 13.1317 204° Southwest 449 517 34,000  Level FlightAware ADS-B (LKPR / PRG)
04:35AM 49.3283 13.0808 204° Southwest 449 517 34,000  Level FlightAware ADS-B (LKPR / PRG)
04:36AM 49.2270 13.0110 204° Southwest 446 513 34,000  Level FlightAware
04:37AM 49.1680 12.9700 204° Southwest 445 512 34,000  Level FlightAware
04:37AM 49.1040 12.9270 204° Southwest 445 512 34,000  Level FlightAware
04:38AM 49.0330 12.8790 204° Southwest 444 511 34,000  Level FlightAware
04:38AM 48.9650 12.8330 204° Southwest 445 512 34,000  Level FlightAware
04:39AM 48.9080 12.7940 204° Southwest 445 512 34,000  Level FlightAware
04:40AM 48.8320 12.7490 201° Southwest 443 510 34,000  Level FlightAware
04:40AM 48.7784 12.7173 201° Southwest 436 502 34,000  Level FlightAware ADS-B (EDDM / MUC)
04:41AM 48.6980 12.6700 201° Southwest 442 509 34,000  Level FlightAware
04:41AM 48.6516 12.6418 202° Southwest 434 499 34,000  Level FlightAware ADS-B (EDDM / MUC)
04:42AM 48.5857 12.6026 201° Southwest 434 499 34,000  Level FlightAware ADS-B (EDDM / MUC)
04:42AM 48.5142 12.5601 201° Southwest 434 499 34,000  Level FlightAware ADS-B (EDDM / MUC)
04:43AM 48.4387 12.5157 201° Southwest 435 501 34,000  Level FlightAware ADS-B (EDDM / MUC)
04:44AM 48.3588 12.4684 201° Southwest 435 501 34,000  Level FlightAware ADS-B (EDDM / MUC)
04:44AM 48.3030 12.4350 202° Southwest 443 510 34,000  Level FlightAware
04:44AM 48.2683 12.4152 201° Southwest 436 502 34,000  Level FlightAware ADS-B (EDDM / MUC)
04:45AM 48.1797 12.3635 201° Southwest 436 502 34,000  Level FlightAware ADS-B (EDDM / MUC)
04:46AM 48.1125 12.3243 201° Southwest 436 502 34,000  Level FlightAware ADS-B (EDDM / MUC)
04:47AM 48.0223 12.2719 201° Southwest 437 503 34,000  Level FlightAware ADS-B (EDDM / MUC)
04:47AM 47.9640 12.2380 201° Southwest 445 512 34,000 -300 Level FlightAware
04:47AM 47.9414 12.2250 201° Southwest 445 512 33,800 -1,020 Descending FlightAware ADS-B (EDDM / MUC)
04:48AM 47.8580 12.1769 201° Southwest 445 512 33,100 -1,020 Descending FlightAware ADS-B (EDDM / MUC)
04:49AM 47.7765 12.1302 201° Southwest 452 520 32,400 -840 Descending FlightAware ADS-B (EDDM / MUC)
04:49AM 47.7013 12.0869 201° Southwest 451 519 32,000 -360 Descending FlightAware ADS-B (EDDM / MUC)
04:50AM 47.6380 12.0510 201° Southwest 452 520 32,000  Level FlightAware
04:50AM 47.6065 12.0328 201° Southwest 451 519 32,000 -120 Level FlightAware ADS-B (EDDM / MUC)
04:51AM 47.5342 11.9916 201° Southwest 445 512 31,900 -600 Descending FlightAware ADS-B (EDDM / MUC)
04:52AM 47.4514 11.9446 201° Southwest 433 498 31,200 -660 Descending FlightAware ADS-B (EDDM / MUC)
04:52AM 47.3727 11.9043 199° South 437 503 31,000 -180 Descending FlightAware ADS-B (EDDM / MUC)
04:53AM 47.2880 11.8686 196° South 437 503 31,000  Level FlightAware ADS-B (EDDM / MUC)
04:54AM 47.2127 11.8357 197° South 434 499 31,000 -480 Level FlightAware ADS-B (EDDM / MUC)
04:54AM 47.1340 11.8010 197° South 438 504 30,400 -1,140 Descending FlightAware
04:54AM 47.1109 11.7907 197° South 436 502 30,000 -1,740 Descending FlightAware ADS-B (EDDM / MUC)
04:55AM 47.0328 11.7563 197° South 423 487 29,000 -780 Descending FlightAware ADS-B (EDDM / MUC)
04:56AM 46.9544 11.7219 197° South 434 499 29,000  Level FlightAware ADS-B (EDDM / MUC)
04:56AM 46.8814 11.6901 197° South 433 498 29,000 -240 Level FlightAware ADS-B (EDDM / MUC)
04:57AM 46.7950 11.6530 196° South 424 488 28,700 -660 Descending FlightAware
04:58AM 46.7380 11.6280 197° South 424 488 28,200 -960 Descending FlightAware
04:58AM 46.6660 11.6120 189° South 421 484 27,600 -1,020 Descending FlightAware
04:59AM 46.5860 11.6050 183° South 426 490 26,900 -1,080 Descending FlightAware
05:00AM 46.5060 11.5980 183° South 421 484 26,200 -960 Descending FlightAware
05:00AM 46.4380 11.5930 183° South 415 478 25,700 -1,020 Descending FlightAware
05:01AM 46.3580 11.5860 183° South 403 464 25,000 -1,080 Descending FlightAware
05:02AM 46.2840 11.5800 183° South 399 459 24,300 -1,020 Descending FlightAware
05:02AM 46.2090 11.5740 183° South 399 459 23,700 -960 Descending FlightAware
05:02AM 46.1970 11.5748 177° South 406 467 23,600 -1,080 Descending FlightAware ADS-B (EDDM / MUC)
05:03AM 46.1450 11.5840 173° South 403 464 23,100 -1,020 Descending FlightAware
05:03AM 46.0880 11.5940 173° South 389 448 22,600 -960 Descending FlightAware
05:04AM 46.0260 11.6050 173° South 391 450 22,100 -1,320 Descending FlightAware
05:05AM 45.9570 11.6180 173° South 377 434 21,000 -2,040 Descending FlightAware
05:05AM 45.8940 11.6290 173° South 376 433 19,600 -2,160 Descending FlightAware
05:06AM 45.8400 11.6390 173° South 370 426 18,700 -1,800 Descending FlightAware
05:06AM 45.7720 11.6510 173° South 361 415 17,500 -2,040 Descending FlightAware
05:07AM 45.7140 11.6620 172° South 358 412 16,200 -2,040 Descending FlightAware
05:07AM 45.6650 11.6710 173° South 353 406 15,300 -1,920 Descending FlightAware
05:08AM 45.6060 11.6820 173° South 346 398 14,100 -2,040 Descending FlightAware
05:09AM 45.5420 11.7020 168° South 348 400 12,800 -1,920 Descending FlightAware
05:09AM 45.4870 11.7190 168° South 334 384 11,700 -1,860 Descending FlightAware
05:10AM 45.4430 11.7330 167° South 330 380 10,800 -1,320 Descending FlightAware
05:10AM 45.3890 11.7500 168° South 314 361 10,300 -840 Descending FlightAware
05:11AM 45.3490 11.7620 168° South 298 343 9,900 -960 Descending FlightAware
05:11AM 45.3230 11.7700 168° South 285 328 9,500 -960 Descending FlightAware
05:12AM 45.2910 11.7800 168° South 281 323 9,200 -840 Descending FlightAware
05:12AM 45.2660 11.7880 167° South 261 300 8,900 -1,200 Descending FlightAware
05:12AM 45.2420 11.7950 168° South 261 300 8,400 -1,620 Descending FlightAware
05:12AM 45.2280 11.8000 166° South 262 302 8,100 -1,380 Descending FlightAware
05:13AM 45.1980 11.8110 166° South 260 299 7,600 -1,200 Descending FlightAware
05:13AM 45.1930 11.8150 151° Southeast 263 303 7,500 -1,200 Descending FlightAware
05:13AM 45.1850 11.8250 139° Southeast 262 302 7,300 -1,200 Descending FlightAware
05:13AM 45.1810 11.8320 129° Southeast 262 302 7,200 -1,620 Descending FlightAware
05:13AM 45.1760 11.8490 113° Southeast 263 303 6,900 -1,620 Descending FlightAware
05:13AM 45.1750 11.8570 100° East 264 304 6,800 -1,200 Descending FlightAware
05:14AM 45.1750 11.8660 90° East 262 302 6,700 -1,200 Descending FlightAware
05:14AM 45.1780 11.8830 76° East 258 297 6,500 -1,200 Descending FlightAware
05:14AM 45.1850 11.9160 73° East 252 290 6,100 -1,200 Descending FlightAware
05:14AM 45.1900 11.9380 72° East 251 289 5,800 -1,080 Descending FlightAware
05:15AM 45.2030 11.9640 55° Northeast 244 281 5,500 -780 Descending FlightAware
05:15AM 45.2200 11.9870 44° Northeast 246 283 5,300 -540 Descending FlightAware
05:15AM 45.2320 12.0030 43° Northeast 239 275 5,200 -600 Descending FlightAware
05:16AM 45.2530 12.0290 41° Northeast 241 277 4,900 -900 Descending FlightAware
05:16AM 45.2650 12.0450 43° Northeast 238 274 4,600 -1,080 Descending FlightAware
05:16AM 45.2820 12.0660 41° Northeast 227 261 4,300 -960 Descending FlightAware
05:17AM 45.3050 12.0960 43° Northeast 222 255 3,800 -960 Descending FlightAware
05:17AM 45.3210 12.1160 41° Northeast 219 252 3,500 -600 Descending FlightAware
05:17AM 45.3350 12.1340 42° Northeast 200 230 3,400 -300 Descending FlightAware
05:18AM 45.3490 12.1530 44° Northeast 196 226 3,300 -180 Descending FlightAware
05:18AM 45.3660 12.1740 41° Northeast 196 226 3,300 -180 Level FlightAware
05:18AM 45.3790 12.1900 41° Northeast 178 205 3,200 -480 Descending FlightAware
05:19AM 45.3920 12.2070 43° Northeast 177 204 3,000 -720 Descending FlightAware
05:19AM 45.4010 12.2180 41° Northeast 174 200 2,800 -1,080 Descending FlightAware
05:19AM 45.4130 12.2330 41° Northeast 173 199 2,400 -1,020 Descending FlightAware
05:20AM 45.4180 12.2410 48° Northeast 170 196 2,300 -780 Descending FlightAware
05:20AM 45.4350 12.2620 41° Northeast 152 175 1,900 -900 Descending FlightAware
05:20AM 45.4400 12.2680 40° Northeast 136 157 1,700 -840 Descending FlightAware
05:21AM 45.4490 12.2800 43° Northeast 133 153 1,500 -780 Descending FlightAware
05:21AM 45.4590 12.2920 40° Northeast 135 155 1,200 -900 Descending FlightAware
05:21AM 45.4650 12.3010 46° Northeast 133 153 1,000 -780 Descending FlightAware
05:22AM 45.4770 12.3160 41° Northeast 133 153 700 -600 Descending FlightAware
05:22AM 45.4820 12.3220 40° Northeast 134 154 600 -660 Descending FlightAware
05:22AM 45.4930 12.3360 42° Northeast 135 155 300 -420 Descending FlightAware
05:23AM 45.5030 12.3490 42° Northeast 135 155 300  Level FlightAware
05:25AM 45.5051 12.3519 43° Northeast  Level Estimated
05:26AM 45.5051 12.3519 46° Northeast  Level Estimated
05:27AM 45.5051 12.3519 46° Northeast  Level Estimated
05:28AM 45.5051 12.3519 46° Northeast  Level Estimated
05:29AM 45.5051 12.3519 46° Northeast  Level Estimated